Time;durP1;ratioP1;P1;durP2;ratioP2;P2;SDS_P1;SDS_P2;PMS_P1;PMS_P2;Temp;Humidity;BMP_temperature;BMP_pressure;BME280_temperature;BME280_humidity;BME280_pressure;Samples;Min_cycle;Max_cycle;Signal;HPM_P1;HPM_P2
2023/12/28 00:02:09;;;;;;;4.70;2.50;;;;;;;8.95;100.00;100773.00;5169917;27;20036;-82
2023/12/28 00:04:35;;;;;;;6.13;2.53;;;;;;;9.00;100.00;100761.09;5167961;27;20047;-81
2023/12/28 00:07:03;;;;;;;2.70;2.50;;;;;;;9.03;100.00;100773.53;5170121;27;20074;-81
2023/12/28 00:09:30;;;;;;;3.83;2.97;;;;;;;9.05;100.00;100781.06;5168507;27;20035;-81
2023/12/28 00:11:56;;;;;;;2.83;2.47;;;;;;;9.07;100.00;100782.13;5168090;27;20104;-82
2023/12/28 00:14:23;;;;;;;2.80;2.50;;;;;;;9.09;100.00;100792.34;5159794;27;20502;-82
2023/12/28 00:16:50;;;;;;;3.38;2.90;;;;;;;9.11;100.00;100793.38;5159703;27;20082;-82
2023/12/28 00:19:16;;;;;;;5.15;2.70;;;;;;;9.10;100.00;100791.16;5161767;27;20047;-82
2023/12/28 00:21:44;;;;;;;3.67;2.60;;;;;;;9.11;100.00;100803.28;5163134;27;20050;-82
2023/12/28 00:24:11;;;;;;;4.40;2.88;;;;;;;9.11;100.00;100803.28;5162840;27;20082;-82
2023/12/28 00:26:37;;;;;;;3.92;2.28;;;;;;;9.13;100.00;100795.63;5152599;27;20050;-82
2023/12/28 00:29:05;;;;;;;6.18;2.97;;;;;;;9.12;100.00;100813.47;5158406;27;20042;-82
2023/12/28 00:31:32;;;;;;;2.70;2.50;;;;;;;9.14;100.00;100807.72;5160766;27;20558;-82
2023/12/28 00:33:59;;;;;;;5.63;2.70;;;;;;;9.17;100.00;100812.19;5159218;27;20089;-82
2023/12/28 00:36:26;;;;;;;3.90;2.92;;;;;;;9.16;100.00;100811.44;5160538;27;20044;-81
2023/12/28 00:38:53;;;;;;;3.85;2.85;;;;;;;9.16;100.00;100830.03;5162330;27;20741;-81
2023/12/28 00:41:20;;;;;;;5.43;2.60;;;;;;;9.17;100.00;100825.47;5161141;27;20043;-81
2023/12/28 00:43:49;;;;;;;2.90;2.60;;;;;;;9.14;100.00;100836.94;5160436;27;20155;-81
2023/12/28 00:46:15;;;;;;;10.43;2.75;;;;;;;9.13;100.00;100844.16;5161893;27;20040;-81
2023/12/28 00:48:43;;;;;;;9.07;2.78;;;;;;;9.11;100.00;100832.47;5160995;27;20076;-82
2023/12/28 00:51:09;;;;;;;5.05;2.85;;;;;;;9.09;100.00;100851.50;5160972;27;20100;-82
2023/12/28 00:53:36;;;;;;;2.78;2.47;;;;;;;9.09;100.00;100837.47;5141715;27;20075;-82
2023/12/28 00:56:03;;;;;;;2.67;2.45;;;;;;;9.10;100.00;100838.97;5160863;27;20031;-83
2023/12/28 00:58:30;;;;;;;5.10;2.83;;;;;;;9.11;100.00;100845.75;5141035;27;20053;-82
2023/12/28 01:00:57;;;;;;;3.90;2.53;;;;;;;9.10;100.00;100841.63;5160297;27;20137;-82
2023/12/28 01:03:24;;;;;;;4.97;3.00;;;;;;;9.08;100.00;100838.66;5160308;27;20043;-82
2023/12/28 01:05:53;;;;;;;3.10;2.65;;;;;;;9.06;100.00;100839.06;5160348;27;20521;-82
2023/12/28 01:08:19;;;;;;;2.80;2.50;;;;;;;9.05;100.00;100826.97;5152531;27;20043;-82
2023/12/28 01:10:46;;;;;;;4.43;2.45;;;;;;;9.02;100.00;100819.84;5159137;27;20047;-82
2023/12/28 01:13:13;;;;;;;6.65;2.80;;;;;;;9.00;100.00;100832.81;5159951;27;20043;-81
2023/12/28 01:15:40;;;;;;;3.65;2.63;;;;;;;8.98;100.00;100835.13;5142073;27;20047;-81
2023/12/28 01:18:06;;;;;;;4.93;2.22;;;;;;;8.96;100.00;100827.59;5162487;27;20125;-81
2023/12/28 01:20:34;;;;;;;4.32;2.83;;;;;;;8.95;100.00;100841.28;5180737;27;20050;-81
2023/12/28 01:23:01;;;;;;;5.70;2.67;;;;;;;8.93;100.00;100836.41;5182958;27;20103;-81
2023/12/28 01:25:28;;;;;;;4.38;2.90;;;;;;;8.91;100.00;100840.66;5181278;27;20481;-82
2023/12/28 01:27:55;;;;;;;7.07;2.97;;;;;;;8.90;100.00;100847.13;5164241;27;20031;-81
2023/12/28 01:30:22;;;;;;;4.88;2.60;;;;;;;8.89;100.00;100851.69;5146533;27;20055;-81
2023/12/28 01:32:49;;;;;;;3.03;2.65;;;;;;;8.90;100.00;100855.84;5146254;27;20601;-81
2023/12/28 01:35:16;;;;;;;4.50;2.78;;;;;;;8.88;100.00;100849.47;5180317;27;20074;-81
2023/12/28 01:37:42;;;;;;;6.25;2.60;;;;;;;8.87;100.00;100853.28;5144705;27;20505;-81
2023/12/28 01:40:09;;;;;;;6.30;2.15;;;;;;;8.86;100.00;100852.53;5181188;27;20086;-81
2023/12/28 01:42:36;;;;;;;5.85;2.40;;;;;;;8.89;100.00;100851.69;5181884;27;20110;-81
2023/12/28 01:45:03;;;;;;;3.30;2.22;;;;;;;8.88;100.00;100844.91;5163441;27;20077;-81
2023/12/28 01:47:31;;;;;;;4.72;2.42;;;;;;;8.85;100.00;100851.06;5163693;27;20035;-81
2023/12/28 01:49:59;;;;;;;4.82;2.40;;;;;;;8.83;100.00;100840.13;5146896;27;20051;-82
2023/12/28 01:52:28;;;;;;;2.47;1.92;;;;;;;8.83;100.00;100842.78;5147913;27;20046;-81
2023/12/28 01:54:55;;;;;;;2.88;2.45;;;;;;;8.85;100.00;100850.31;5174564;27;20455;-81
2023/12/28 01:57:22;;;;;;;3.53;2.47;;;;;;;8.85;100.00;100850.31;5160069;27;20035;-81
2023/12/28 01:59:50;;;;;;;3.67;2.60;;;;;;;8.83;100.00;100853.38;5178425;27;20882;-81
2023/12/28 02:02:18;;;;;;;4.75;2.35;;;;;;;8.83;100.00;100853.38;5165553;27;20039;-80
2023/12/28 02:04:45;;;;;;;4.13;2.35;;;;;;;8.84;100.00;100854.13;5188866;27;20046;-81
2023/12/28 02:07:13;;;;;;;5.75;2.90;;;;;;;8.83;100.00;100850.00;5189921;27;20820;-81
2023/12/28 02:09:39;;;;;;;4.47;2.50;;;;;;;8.81;100.00;100853.06;5184274;27;20776;-81
2023/12/28 02:12:07;;;;;;;3.30;2.40;;;;;;;8.82;100.00;100856.47;5164274;27;20047;-81
2023/12/28 02:14:34;;;;;;;6.85;3.15;;;;;;;8.83;100.00;100852.66;5163048;27;20030;-81
2023/12/28 02:17:07;;;;;;;4.25;2.10;;;;;;;8.81;100.00;100855.72;5162958;27;20043;-81
2023/12/28 02:19:43;;;;;;;2.85;2.35;;;;;;;8.81;100.00;100850.41;5163809;27;20047;-81
2023/12/28 02:22:15;;;;;;;2.95;2.35;;;;;;;8.81;100.00;100841.72;5181756;27;20416;-81
2023/12/28 02:25:02;;;;;;;6.57;3.00;;;;;;;8.80;100.00;100851.59;5165722;27;20550;-82
2023/12/28 02:27:29;;;;;;;3.45;2.40;;;;;;;8.79;100.00;100842.16;5183365;27;20039;-81
2023/12/28 02:29:57;;;;;;;5.43;2.90;;;;;;;8.76;100.00;100848.31;5166069;27;20825;-81
2023/12/28 02:32:50;;;;;;;5.00;2.10;;;;;;;8.78;100.00;100842.59;5167943;27;20050;-81
2023/12/28 02:35:28;;;;;;;3.70;2.15;;;;;;;8.81;100.00;100831.09;5138380;27;20043;-81
2023/12/28 02:38:01;;;;;;;2.83;1.88;;;;;;;8.85;100.00;100832.47;5182206;27;20873;-81
2023/12/28 02:40:33;;;;;;;4.10;2.35;;;;;;;8.88;100.00;100838.84;5163660;27;20084;-81
2023/12/28 02:43:03;;;;;;;4.97;1.95;;;;;;;8.93;100.00;100833.00;5186097;27;20818;-81
2023/12/28 02:45:29;;;;;;;3.78;2.33;;;;;;;8.97;100.00;100826.44;5185411;27;20972;-81
2023/12/28 02:47:56;;;;;;;4.10;2.28;;;;;;;9.02;100.00;100822.50;5186355;27;20031;-81
2023/12/28 02:50:24;;;;;;;3.05;2.10;;;;;;;9.04;100.00;100820.16;5165794;27;20046;-82
2023/12/28 02:52:51;;;;;;;2.40;2.00;;;;;;;9.06;100.00;100817.06;5165672;27;20099;-81
2023/12/28 02:55:22;;;;;;;3.30;2.10;;;;;;;9.04;100.00;100820.16;5183715;27;20039;-81
2023/12/28 02:57:50;;;;;;;4.67;1.77;;;;;;;9.04;100.00;100798.91;5164177;27;20077;-82
2023/12/28 03:00:17;;;;;;;8.43;2.28;;;;;;;9.05;100.00;100812.94;5163105;27;20042;-81
2023/12/28 03:02:43;;;;;;;3.13;1.52;;;;;;;9.07;100.00;100810.59;5185161;27;20042;-81
2023/12/28 03:05:10;;;;;;;2.20;1.80;;;;;;;9.08;100.00;100806.78;5184812;27;20049;-81
2023/12/28 03:07:38;;;;;;;3.80;1.90;;;;;;;9.07;100.00;100813.25;5186775;27;20054;-81
2023/12/28 03:10:06;;;;;;;3.17;1.65;;;;;;;9.07;100.00;100803.38;5169038;27;20046;-81
2023/12/28 03:12:33;;;;;;;5.32;1.70;;;;;;;9.03;100.00;100816.75;5187157;27;20043;-81
2023/12/28 03:15:01;;;;;;;5.60;2.08;;;;;;;9.06;100.00;100811.78;5147992;27;20043;-82
2023/12/28 03:17:30;;;;;;;6.93;1.95;;;;;;;9.09;100.00;100821.53;5146191;27;20134;-82
2023/12/28 03:19:58;;;;;;;3.15;1.80;;;;;;;9.14;100.00;100824.41;5180246;27;20519;-82
2023/12/28 03:22:25;;;;;;;5.95;1.88;;;;;;;9.16;100.00;100831.94;5181941;27;20035;-82
2023/12/28 03:24:52;;;;;;;6.60;2.08;;;;;;;9.18;100.00;100819.00;5185464;27;20039;-82
2023/12/28 03:27:18;;;;;;;3.40;2.00;;;;;;;9.20;100.00;100819.28;5148934;27;20047;-81
2023/12/28 03:29:46;;;;;;;8.27;1.77;;;;;;;9.21;100.00;100823.41;5185752;27;20505;-82
2023/12/28 03:32:14;;;;;;;2.25;1.80;;;;;;;9.24;100.00;100833.19;5183849;27;20113;-82
2023/12/28 03:34:40;;;;;;;6.82;2.00;;;;;;;9.25;100.00;100819.47;5163125;27;20505;-82
2023/12/28 03:37:07;;;;;;;5.53;1.95;;;;;;;9.27;100.00;100806.50;5183305;27;20049;-82
2023/12/28 03:39:34;;;;;;;3.67;1.73;;;;;;;9.28;100.00;100802.69;5183656;27;20088;-81
2023/12/28 03:42:01;;;;;;;2.40;1.42;;;;;;;9.28;100.00;100807.25;5167279;27;20046;-82
2023/12/28 03:44:28;;;;;;;4.93;1.80;;;;;;;9.28;100.00;100809.91;5148289;27;20946;-82
2023/12/28 03:46:54;;;;;;;4.13;1.92;;;;;;;9.29;100.00;100812.16;5167402;27;20030;-81
2023/12/28 03:49:21;;;;;;;10.90;1.67;;;;;;;9.30;100.00;100807.56;5168176;27;20051;-82
2023/12/28 03:51:50;;;;;;;8.32;2.03;;;;;;;9.33;100.00;100802.16;5167323;27;20122;-82
2023/12/28 03:54:17;;;;;;;3.63;1.88;;;;;;;9.34;100.00;100802.91;5148623;27;20081;-82
2023/12/28 03:56:45;;;;;;;5.07;2.00;;;;;;;9.32;100.00;100805.22;5165801;27;20047;-82
2023/12/28 03:59:12;;;;;;;4.03;1.90;;;;;;;9.32;100.00;100802.56;5165542;27;20057;-82
2023/12/28 04:01:39;;;;;;;4.07;1.80;;;;;;;9.29;100.00;100806.09;5170123;27;20558;-82
2023/12/28 04:04:06;;;;;;;4.22;1.90;;;;;;;9.25;100.00;100797.50;5168486;27;20537;-82
2023/12/28 04:06:33;;;;;;;7.60;2.25;;;;;;;9.24;100.00;100798.66;5164669;27;20078;-82
2023/12/28 04:08:59;;;;;;;5.88;2.28;;;;;;;9.18;100.00;100798.47;5176273;27;20107;-82
2023/12/28 04:11:26;;;;;;;7.50;2.17;;;;;;;9.18;100.00;100798.47;5182794;27;20485;-82
2023/12/28 04:13:52;;;;;;;6.65;1.85;;;;;;;9.18;100.00;100803.78;5182711;27;20070;-82
2023/12/28 04:16:19;;;;;;;4.03;1.73;;;;;;;9.20;100.00;100808.66;5155801;27;20537;-81
2023/12/28 04:18:46;;;;;;;11.85;1.77;;;;;;;9.18;100.00;100808.38;5128378;27;20051;-81
2023/12/28 04:21:13;;;;;;;2.78;1.73;;;;;;;9.18;100.00;100817.06;5146276;27;20445;-82
2023/12/28 04:23:41;;;;;;;10.50;2.53;;;;;;;9.17;100.00;100817.50;5126042;27;20040;-81
2023/12/28 04:26:08;;;;;;;6.25;2.20;;;;;;;9.18;100.00;100821.66;5142539;27;20047;-82
2023/12/28 04:28:35;;;;;;;4.82;2.00;;;;;;;9.18;100.00;100814.41;5122471;27;20494;-82
2023/12/28 04:31:03;;;;;;;2.15;1.70;;;;;;;9.18;100.00;100813.69;5143370;27;20107;-82
2023/12/28 04:33:31;;;;;;;11.40;2.40;;;;;;;9.16;100.00;100805.38;5138043;27;20070;-82
2023/12/28 04:36:05;;;;;;;9.38;1.75;;;;;;;9.15;100.00;100814.53;5140093;27;20134;-81
2023/12/28 04:38:32;;;;;;;9.52;2.33;;;;;;;9.14;100.00;100808.47;5137192;27;20496;-82
2023/12/28 04:41:00;;;;;;;7.20;1.88;;;;;;;9.16;100.00;100806.13;5139890;27;20078;-81
2023/12/28 04:43:26;;;;;;;6.22;2.20;;;;;;;9.20;100.00;100819.28;5139021;27;20043;-81
2023/12/28 04:45:53;;;;;;;6.57;1.90;;;;;;;9.20;100.00;100812.06;5141491;27;20098;-82
2023/12/28 04:48:20;;;;;;;11.70;1.83;;;;;;;9.23;100.00;100813.84;5141809;27;20043;-82
2023/12/28 04:50:48;;;;;;;5.03;2.00;;;;;;;9.25;100.00;100810.78;5136879;27;20078;-81
2023/12/28 04:53:15;;;;;;;8.60;1.92;;;;;;;9.26;100.00;100813.00;5124715;27;20086;-82
2023/12/28 04:55:42;;;;;;;10.43;2.00;;;;;;;9.29;100.00;100811.41;5139490;27;20043;-81
2023/12/28 04:58:11;;;;;;;3.50;1.45;;;;;;;9.27;100.00;100814.50;5142071;27;20044;-82
2023/12/28 05:00:39;;;;;;;4.72;1.80;;;;;;;9.29;99.92;100812.16;5137825;27;20491;-82
2023/12/28 05:03:09;;;;;;;10.13;2.30;;;;;;;9.32;100.00;100802.56;5142699;27;20119;-81
2023/12/28 05:05:35;;;;;;;9.43;2.30;;;;;;;9.35;99.35;100821.06;5140453;27;20522;-81
2023/12/28 05:08:02;;;;;;;6.28;1.98;;;;;;;9.39;99.19;100807.66;5136422;27;20051;-81
2023/12/28 05:10:29;;;;;;;9.63;2.00;;;;;;;9.41;98.72;100825.84;5138678;27;20035;-81
2023/12/28 05:12:56;;;;;;;8.23;1.90;;;;;;;9.40;97.78;100803.09;5140075;27;20040;-81
2023/12/28 05:15:28;;;;;;;12.43;2.30;;;;;;;9.45;98.47;100821.16;5141929;27;20069;-81
2023/12/28 05:17:55;;;;;;;5.85;1.85;;;;;;;9.43;97.88;100824.25;5161341;27;20051;-80
2023/12/28 05:20:22;;;;;;;8.80;1.70;;;;;;;9.45;98.04;100821.16;5161566;27;20048;-81
2023/12/28 05:22:49;;;;;;;10.60;1.83;;;;;;;9.49;97.48;100824.44;5143008;27;20058;-81
2023/12/28 05:25:15;;;;;;;7.15;1.98;;;;;;;9.51;96.86;100827.41;5143638;27;20085;-81
2023/12/28 05:27:42;;;;;;;12.40;2.03;;;;;;;9.50;97.04;100824.03;5161541;27;20130;-82
2023/12/28 05:30:10;;;;;;;7.53;1.92;;;;;;;9.52;96.69;100820.94;5157488;27;20039;-81
2023/12/28 05:32:38;;;;;;;6.00;1.60;;;;;;;9.53;96.74;100831.13;5157416;27;20047;-81
2023/12/28 05:35:05;;;;;;;9.15;1.92;;;;;;;9.54;96.24;100826.56;5162267;27;20039;-80
2023/12/28 05:37:32;;;;;;;7.80;1.98;;;;;;;9.54;95.99;100835.28;5162294;27;20043;-81
2023/12/28 05:39:58;;;;;;;13.13;1.98;;;;;;;9.56;96.04;100816.25;5165807;27;20126;-81
2023/12/28 05:42:25;;;;;;;11.45;2.08;;;;;;;9.58;95.68;100827.19;5165488;27;20027;-81
2023/12/28 05:44:52;;;;;;;9.98;1.90;;;;;;;9.60;95.56;100841.50;5162545;27;20056;-81
2023/12/28 05:47:19;;;;;;;8.15;1.95;;;;;;;9.63;95.31;100818.66;5158456;27;20066;-81
2023/12/28 05:49:45;;;;;;;15.77;2.00;;;;;;;9.64;95.60;100826.19;5158989;27;20067;-81
2023/12/28 05:52:14;;;;;;;9.63;2.22;;;;;;;9.62;95.03;100822.47;5161649;27;20027;-81
2023/12/28 05:54:43;;;;;;;8.32;1.88;;;;;;;9.65;95.51;100816.31;5143246;27;20035;-81
2023/12/28 05:57:10;;;;;;;9.63;1.95;;;;;;;9.66;95.06;100802.59;5161796;27;20051;-81
2023/12/28 05:59:40;;;;;;;7.47;1.85;;;;;;;9.68;94.41;100818.09;5164855;27;20131;-80
2023/12/28 06:02:07;;;;;;;6.63;1.92;;;;;;;9.68;94.53;100826.06;5164415;27;20051;-80
2023/12/28 06:04:35;;;;;;;8.50;1.63;;;;;;;9.67;94.85;100833.31;5144664;27;20104;-80
2023/12/28 06:07:05;;;;;;;6.88;2.03;;;;;;;9.69;94.40;100838.94;5163356;27;20043;-80
2023/12/28 06:09:32;;;;;;;5.78;1.70;;;;;;;9.72;94.56;100839.25;5164934;27;20565;-81
2023/12/28 06:11:59;;;;;;;18.38;2.45;;;;;;;9.73;93.64;100838.81;5166383;27;20039;-81
2023/12/28 06:14:26;;;;;;;14.65;2.65;;;;;;;9.73;94.10;100830.09;5162913;27;20082;-81
2023/12/28 06:16:52;;;;;;;12.32;2.25;;;;;;;9.74;93.92;100835.00;5176444;27;20142;-81
2023/12/28 06:19:19;;;;;;;7.63;2.00;;;;;;;9.75;93.59;100841.78;5185335;27;20073;-81
2023/12/28 06:21:46;;;;;;;9.02;2.05;;;;;;;9.76;94.09;100848.59;5148926;27;20054;-80
2023/12/28 06:24:12;;;;;;;9.32;2.05;;;;;;;9.75;93.98;100823.19;5185057;27;20039;-81
2023/12/28 06:26:44;;;;;;;5.40;1.52;;;;;;;9.76;93.68;100839.88;5186777;27;20133;-81
2023/12/28 06:29:10;;;;;;;10.52;2.42;;;;;;;9.78;94.24;100843.59;5191613;27;20127;-81
2023/12/28 06:31:37;;;;;;;13.52;2.55;;;;;;;9.80;93.41;100851.13;5172059;27;20043;-82
2023/12/28 06:34:05;;;;;;;8.27;1.83;;;;;;;9.79;93.45;100860.28;5189194;27;20047;-81
2023/12/28 06:36:33;;;;;;;10.05;2.45;;;;;;;9.78;93.09;100859.53;5185881;27;20094;-81
2023/12/28 06:39:00;;;;;;;6.25;2.20;;;;;;;9.80;93.22;100875.81;5185645;27;20031;-82
2023/12/28 06:41:27;;;;;;;8.45;2.20;;;;;;;9.79;93.50;100869.00;5165540;27;20082;-82
2023/12/28 06:43:54;;;;;;;9.68;2.10;;;;;;;9.78;93.51;100864.13;5184471;27;20039;-82
2023/12/28 06:46:21;;;;;;;11.82;1.95;;;;;;;9.78;93.08;100864.88;5184661;27;20054;-81
2023/12/28 06:48:48;;;;;;;5.38;1.80;;;;;;;9.79;93.35;100876.25;5164201;27;20072;-82
2023/12/28 06:51:19;;;;;;;6.90;1.50;;;;;;;9.81;93.16;100879.22;5185103;27;20091;-81
2023/12/28 06:53:46;;;;;;;13.10;2.08;;;;;;;9.82;92.53;100881.44;5186104;27;20501;-81
2023/12/28 06:56:13;;;;;;;11.93;2.38;;;;;;;9.81;92.72;100865.91;5187871;27;20074;-83
2023/12/28 06:58:40;;;;;;;10.77;2.20;;;;;;;9.81;92.78;100876.56;5186620;27;20126;-81
2023/12/28 07:01:07;;;;;;;12.13;2.17;;;;;;;9.80;93.17;100867.84;5163569;27;20099;-80
2023/12/28 07:03:34;;;;;;;12.13;2.13;;;;;;;9.80;92.56;100867.84;5163612;27;20046;-79
2023/12/28 07:06:03;;;;;;;9.25;2.40;;;;;;;9.82;92.61;100878.03;5196204;27;20062;-80
2023/12/28 07:08:29;;;;;;;5.47;1.98;;;;;;;9.80;93.42;100875.81;5174921;27;20063;-80
2023/12/28 07:11:00;;;;;;;9.07;2.50;;;;;;;9.81;93.14;100876.56;5200241;27;20039;-80
2023/12/28 07:13:27;;;;;;;9.30;2.13;;;;;;;9.78;92.47;100894.09;5203494;27;20035;-81
2023/12/28 07:15:54;;;;;;;13.32;2.58;;;;;;;9.76;92.76;100895.72;5197453;27;20788;-81
2023/12/28 07:18:25;;;;;;;9.17;2.00;;;;;;;9.71;93.39;100875.72;5185343;27;20098;-82
2023/12/28 07:20:53;;;;;;;11.93;2.85;;;;;;;9.67;93.20;100891.78;5188447;27;21118;-82
2023/12/28 07:23:20;;;;;;;11.45;2.13;;;;;;;9.65;93.19;100899.44;5189752;27;20050;-82
2023/12/28 07:25:47;;;;;;;9.13;2.03;;;;;;;9.62;93.26;100910.94;5189160;27;20907;-81
2023/12/28 07:28:13;;;;;;;10.23;2.13;;;;;;;9.60;93.50;100907.22;5166841;27;20043;-81
2023/12/28 07:30:41;;;;;;;12.55;2.58;;;;;;;9.59;93.60;100908.41;5190283;27;20964;-80
2023/12/28 07:33:08;;;;;;;10.77;2.40;;;;;;;9.56;93.00;100911.91;5186204;27;20076;-80
2023/12/28 07:35:35;;;;;;;8.88;1.73;;;;;;;9.53;93.14;100902.88;5150663;27;20133;-82
2023/12/28 07:38:02;;;;;;;6.53;1.80;;;;;;;9.50;93.36;100913.63;5169217;27;20106;-80
2023/12/28 07:40:28;;;;;;;4.65;1.83;;;;;;;9.51;93.55;100921.16;5187269;27;20047;-80
2023/12/28 07:42:56;;;;;;;10.27;2.60;;;;;;;9.52;94.10;100929.88;5186403;27;20039;-82
2023/12/28 07:45:24;;;;;;;9.32;1.85;;;;;;;9.53;93.86;100926.06;5169145;27;20057;-81
2023/12/28 07:47:53;;;;;;;10.57;1.77;;;;;;;9.54;93.93;100927.56;5189819;27;20494;-82
2023/12/28 07:50:20;;;;;;;10.50;2.40;;;;;;;9.54;93.92;100932.88;5169543;27;20046;-80
2023/12/28 07:52:48;;;;;;;19.80;3.03;;;;;;;9.54;93.87;100936.28;5191369;27;20081;-83
2023/12/28 07:55:15;;;;;;;14.55;2.45;;;;;;;9.55;94.02;100940.41;5172603;27;20078;-83
2023/12/28 07:57:42;;;;;;;12.50;2.28;;;;;;;9.57;93.68;100945.31;5192386;27;20791;-82
2023/12/28 08:00:10;;;;;;;12.52;2.50;;;;;;;9.60;94.06;100949.75;5169886;27;20112;-81
2023/12/28 08:02:36;;;;;;;9.85;2.20;;;;;;;9.61;93.41;100956.53;5185151;27;20035;-80
2023/12/28 08:05:04;;;;;;;14.68;2.47;;;;;;;9.61;93.83;100949.31;5186840;27;20039;-80
2023/12/28 08:07:31;;;;;;;14.35;2.58;;;;;;;9.63;93.39;100940.91;5142926;27;20086;-78
2023/12/28 08:09:58;;;;;;;11.85;2.33;;;;;;;9.64;93.58;100939.75;5180877;27;20039;-78
2023/12/28 08:12:27;;;;;;;19.40;2.63;;;;;;;9.67;93.11;100938.88;5180864;27;20043;-81
2023/12/28 08:14:55;;;;;;;17.95;3.10;;;;;;;9.69;93.05;100920.59;5163201;27;20043;-79
2023/12/28 08:17:22;;;;;;;16.80;3.05;;;;;;;9.72;93.25;100929.63;5180654;27;20054;-79
2023/12/28 08:19:48;;;;;;;15.48;2.30;;;;;;;9.74;92.87;100938.66;5182057;27;20042;-80
2023/12/28 08:22:15;;;;;;;9.18;2.45;;;;;;;9.75;92.80;100923.47;5181063;27;20051;-77
2023/12/28 08:24:42;;;;;;;8.25;2.60;;;;;;;9.75;92.76;100929.53;5181498;27;20039;-81
2023/12/28 08:27:09;;;;;;;15.15;3.20;;;;;;;9.77;92.56;100945.03;5182753;27;20043;-79
2023/12/28 08:29:36;;;;;;;13.73;2.38;;;;;;;9.78;92.73;100933.97;5180842;27;20503;-81
2023/12/28 08:32:03;;;;;;;9.63;2.40;;;;;;;9.80;92.94;100947.59;5183609;27;20129;-80
2023/12/28 08:34:30;;;;;;;10.55;2.47;;;;;;;9.82;92.58;100944.50;5161117;27;20066;-80
2023/12/28 08:36:57;;;;;;;11.40;2.50;;;;;;;9.84;92.42;100934.19;5182558;27;20148;-81
2023/12/28 08:39:23;;;;;;;10.85;2.08;;;;;;;9.85;91.95;100936.41;5147118;27;20047;-83
2023/12/28 08:41:50;;;;;;;14.18;2.70;;;;;;;9.86;92.01;100945.88;5182565;27;20062;-81
2023/12/28 08:44:17;;;;;;;12.63;2.40;;;;;;;9.87;91.78;100934.06;5183107;27;20167;-80
2023/12/28 08:46:43;;;;;;;16.15;2.40;;;;;;;9.90;92.25;100953.75;5182383;27;20053;-80
2023/12/28 08:49:11;;;;;;;10.05;2.50;;;;;;;9.88;91.90;100958.75;5169977;27;20964;-79
2023/12/28 08:51:38;;;;;;;14.02;2.58;;;;;;;9.90;92.48;100962.47;5193931;27;20039;-84
2023/12/28 08:54:09;;;;;;;21.40;3.03;;;;;;;9.90;92.21;100946.53;5168068;27;20098;-78
2023/12/28 08:56:35;;;;;;;7.43;1.90;;;;;;;9.91;91.98;100958.66;5181980;27;20133;-79
2023/12/28 08:59:03;;;;;;;11.77;2.15;;;;;;;9.92;92.34;100965.44;5159270;27;20142;-76
2023/12/28 09:01:30;;;;;;;10.70;2.65;;;;;;;9.94;92.18;100955.13;5176683;27;20070;-75
2023/12/28 09:03:58;;;;;;;10.10;2.30;;;;;;;9.95;91.84;100967.25;5176495;27;20126;-75
2023/12/28 09:06:25;;;;;;;8.63;1.90;;;;;;;9.97;92.16;100983.53;5177079;27;20046;-76
2023/12/28 09:08:52;;;;;;;11.98;2.67;;;;;;;9.98;92.28;100984.28;5177796;27;20049;-77
2023/12/28 09:11:19;;;;;;;11.30;2.03;;;;;;;9.99;92.29;100975.13;5158822;27;20814;-79
2023/12/28 09:13:46;;;;;;;8.40;2.42;;;;;;;10.00;92.10;100969.34;5187119;27;20098;-81
2023/12/28 09:16:14;;;;;;;10.93;1.98;;;;;;;10.04;91.30;100972.63;5165369;27;20877;-86
2023/12/28 09:18:42;;;;;;;14.95;2.30;;;;;;;10.06;91.72;100979.44;5164564;27;20050;-80
2023/12/28 09:21:10;;;;;;;9.13;2.08;;;;;;;10.06;91.34;100974.88;5164508;27;20048;-80
2023/12/28 09:23:37;;;;;;;9.07;2.33;;;;;;;10.06;91.48;100974.13;5157790;27;20047;-79
2023/12/28 09:26:04;;;;;;;7.03;2.50;;;;;;;10.06;90.96;100982.84;5156116;27;20520;-74
2023/12/28 09:28:34;;;;;;;12.95;2.20;;;;;;;10.07;91.66;100964.97;5154922;27;20046;-74
2023/12/28 09:31:02;;;;;;;11.18;2.88;;;;;;;10.07;91.60;100986.25;5154361;27;20082;-74
2023/12/28 09:33:29;;;;;;;14.40;2.55;;;;;;;10.08;91.97;100998.38;5154116;27;20101;-74
2023/12/28 09:35:56;;;;;;;12.02;2.65;;;;;;;10.08;90.60;100988.47;5149830;27;20043;-73
2023/12/28 09:38:23;;;;;;;14.57;2.72;;;;;;;10.15;90.81;100993.56;5154031;27;20072;-73
2023/12/28 09:40:54;;;;;;;8.85;1.92;;;;;;;10.19;90.52;100988.91;5154770;27;20050;-73
2023/12/28 09:43:25;;;;;;;10.02;2.45;;;;;;;10.25;90.58;100997.84;5155002;27;20047;-73
2023/12/28 09:45:53;;;;;;;11.10;1.88;;;;;;;10.28;90.05;100986.34;5151610;27;20108;-73
2023/12/28 09:48:21;;;;;;;10.80;1.90;;;;;;;10.32;89.44;101018.91;5153912;27;20114;-73
2023/12/28 09:50:54;;;;;;;13.88;2.58;;;;;;;10.34;88.99;100999.84;5152398;27;20051;-74
2023/12/28 09:53:23;;;;;;;11.95;2.22;;;;;;;10.36;89.73;101008.13;5154251;27;20062;-73
2023/12/28 09:55:51;;;;;;;10.77;2.50;;;;;;;10.38;89.37;101015.69;5153668;27;20122;-73
2023/12/28 09:58:19;;;;;;;16.73;3.38;;;;;;;10.39;89.08;101006.53;5154626;27;20487;-74
2023/12/28 10:00:47;;;;;;;12.25;1.92;;;;;;;10.44;88.94;101013.94;5154295;27;20096;-74
2023/12/28 10:03:15;;;;;;;19.13;2.90;;;;;;;10.46;88.53;101014.25;5150944;27;20122;-74
2023/12/28 10:05:42;;;;;;;17.02;2.50;;;;;;;10.47;88.50;101015.75;5149960;27;20043;-74
2023/12/28 10:08:12;;;;;;;9.27;2.65;;;;;;;10.46;88.09;101016.91;5154386;27;20130;-73
2023/12/28 10:10:40;;;;;;;12.35;2.80;;;;;;;10.46;88.01;101016.91;5154137;27;20047;-73
2023/12/28 10:13:07;;;;;;;12.95;2.67;;;;;;;10.47;87.95;101021.81;5154358;27;20127;-75
2023/12/28 10:15:37;;;;;;;12.38;2.53;;;;;;;10.48;88.63;101030.53;5153477;27;20047;-75
2023/12/28 10:18:05;;;;;;;14.40;2.80;;;;;;;10.46;88.66;101017.66;5175563;27;20047;-74
2023/12/28 10:20:32;;;;;;;8.32;2.42;;;;;;;10.44;88.33;101032.56;5174376;27;20537;-73
2023/12/28 10:22:59;;;;;;;11.07;2.83;;;;;;;10.43;88.56;101010.53;5175223;27;20076;-73
2023/12/28 10:25:27;;;;;;;11.27;2.42;;;;;;;10.48;88.02;101025.97;5174738;27;20047;-73
2023/12/28 10:27:54;;;;;;;9.88;2.45;;;;;;;10.49;87.22;101022.13;5155929;27;20133;-75
2023/12/28 10:30:21;;;;;;;12.82;2.20;;;;;;;10.49;87.59;101032.78;5175704;27;20826;-73
2023/12/28 10:32:48;;;;;;;9.68;2.38;;;;;;;10.47;87.60;101021.06;5175202;27;20047;-73
2023/12/28 10:35:16;;;;;;;14.90;2.50;;;;;;;10.48;87.69;101017.22;5170806;27;20083;-73
2023/12/28 10:37:43;;;;;;;11.35;2.78;;;;;;;10.49;88.19;101014.13;5174914;27;20039;-73
2023/12/28 10:40:17;;;;;;;16.92;2.72;;;;;;;10.51;87.51;101019.78;5156270;27;20537;-73
2023/12/28 10:43:08;;;;;;;12.55;2.30;;;;;;;10.54;88.09;101032.22;5174173;27;20042;-73
2023/12/28 10:45:38;;;;;;;10.27;1.85;;;;;;;10.57;87.38;101025.31;5175795;27;20418;-73
2023/12/28 10:48:07;;;;;;;14.85;2.25;;;;;;;10.60;86.98;101019.84;5179168;27;20042;-74
2023/12/28 10:50:49;;;;;;;7.82;2.50;;;;;;;10.67;87.43;101014.28;5177546;27;20046;-73
2023/12/28 10:53:31;;;;;;;10.57;2.65;;;;;;;10.72;87.48;101025.56;5178488;27;20049;-73
2023/12/28 10:56:14;;;;;;;11.70;2.10;;;;;;;10.71;86.80;101016.84;5160158;27;20133;-74
2023/12/28 10:58:48;;;;;;;10.02;2.20;;;;;;;10.74;86.52;101015.97;5177723;27;20050;-73
2023/12/28 11:01:24;;;;;;;20.90;2.38;;;;;;;10.78;86.83;101011.28;5177757;27;20042;-74
2023/12/28 11:04:04;;;;;;;13.07;2.67;;;;;;;10.81;86.07;101023.69;5174887;27;20047;-73
2023/12/28 11:06:30;;;;;;;9.55;2.30;;;;;;;10.82;85.64;101011.13;5174441;27;20781;-74
2023/12/28 11:09:00;;;;;;;12.10;2.42;;;;;;;10.78;85.92;101024.59;5177946;27;20049;-75
2023/12/28 11:11:28;;;;;;;17.58;2.80;;;;;;;10.79;85.64;101025.31;5158870;27;20027;-75
2023/12/28 11:13:56;;;;;;;21.33;3.20;;;;;;;10.79;85.53;101020.75;5179389;27;20170;-74
2023/12/28 11:16:22;;;;;;;13.95;2.95;;;;;;;10.79;85.12;101018.09;5176984;27;20055;-73
2023/12/28 11:18:50;;;;;;;13.35;2.05;;;;;;;10.78;85.23;101000.63;5178085;27;20049;-73
2023/12/28 11:21:17;;;;;;;9.68;2.40;;;;;;;10.79;85.25;101010.09;5177616;27;20043;-73
2023/12/28 11:23:44;;;;;;;13.20;2.97;;;;;;;10.76;85.14;101008.28;5177938;27;20870;-74
2023/12/28 11:26:21;;;;;;;13.45;2.70;;;;;;;10.79;85.36;101006.69;5178014;27;20485;-74
2023/12/28 11:28:48;;;;;;;15.38;2.35;;;;;;;10.78;85.14;100989.97;5177836;27;20035;-75